sensor_id;sensor_type;location;lat;lon;timestamp;pressure;altitude;pressure_sealevel;temperature;humidity
50103;BME280;35993;52.604;10.078;2024-03-22T00:01:50;101629.13;;;9.30;99.99
50103;BME280;35993;52.604;10.078;2024-03-22T00:04:17;101625.06;;;9.26;99.91
50103;BME280;35993;52.604;10.078;2024-03-22T00:06:46;101633.88;;;9.28;100.00
50103;BME280;35993;52.604;10.078;2024-03-22T00:09:11;101632.84;;;9.29;100.00
50103;BME280;35993;52.604;10.078;2024-03-22T00:11:39;101626.28;;;9.23;100.00
50103;BME280;35993;52.604;10.078;2024-03-22T00:14:05;101630.03;;;9.22;100.00
50103;BME280;35993;52.604;10.078;2024-03-22T00:16:31;101628.66;;;9.26;100.00
50103;BME280;35993;52.604;10.078;2024-03-22T00:18:57;101622.84;;;9.29;100.00
50103;BME280;35993;52.604;10.078;2024-03-22T00:21:23;101621.00;;;9.30;100.00
50103;BME280;35993;52.604;10.078;2024-03-22T00:23:48;101625.19;;;9.32;100.00
50103;BME280;35993;52.604;10.078;2024-03-22T00:26:14;101621.53;;;9.40;100.00
50103;BME280;35993;52.604;10.078;2024-03-22T00:28:40;101615.19;;;9.33;100.00
50103;BME280;35993;52.604;10.078;2024-03-22T00:31:06;101614.44;;;9.39;100.00
50103;BME280;35993;52.604;10.078;2024-03-22T00:33:32;101609.50;;;9.43;100.00
50103;BME280;35993;52.604;10.078;2024-03-22T00:35:58;101608.09;;;9.47;100.00
50103;BME280;35993;52.604;10.078;2024-03-22T00:38:24;101599.84;;;9.55;100.00
50103;BME280;35993;52.604;10.078;2024-03-22T00:40:49;101595.28;;;9.56;100.00
50103;BME280;35993;52.604;10.078;2024-03-22T00:43:15;101588.38;;;9.53;100.00
50103;BME280;35993;52.604;10.078;2024-03-22T00:45:41;101587.34;;;9.54;100.00
50103;BME280;35993;52.604;10.078;2024-03-22T00:48:06;101579.09;;;9.47;100.00
50103;BME280;35993;52.604;10.078;2024-03-22T00:50:33;101585.56;;;9.46;100.00
50103;BME280;35993;52.604;10.078;2024-03-22T00:53:00;101576.13;;;9.42;100.00
50103;BME280;35993;52.604;10.078;2024-03-22T00:55:28;101565.84;;;9.38;100.00
50103;BME280;35993;52.604;10.078;2024-03-22T00:57:54;101567.72;;;9.37;100.00
50103;BME280;35993;52.604;10.078;2024-03-22T01:00:19;101560.44;;;9.38;100.00
50103;BME280;35993;52.604;10.078;2024-03-22T01:02:46;101559.03;;;9.42;100.00
50103;BME280;35993;52.604;10.078;2024-03-22T01:05:13;101551.56;;;9.44;100.00
50103;BME280;35993;52.604;10.078;2024-03-22T01:07:39;101556.50;;;9.40;100.00
50103;BME280;35993;52.604;10.078;2024-03-22T01:10:05;101563.22;;;9.29;100.00
50103;BME280;35993;52.604;10.078;2024-03-22T01:12:35;101569.59;;;9.22;100.00
50103;BME280;35993;52.604;10.078;2024-03-22T01:15:05;101567.81;;;9.29;100.00
50103;BME280;35993;52.604;10.078;2024-03-22T01:17:33;101563.22;;;9.29;100.00
50103;BME280;35993;52.604;10.078;2024-03-22T01:20:03;101558.38;;;9.25;100.00
50103;BME280;35993;52.604;10.078;2024-03-22T01:22:29;101552.66;;;9.34;100.00
50103;BME280;35993;52.604;10.078;2024-03-22T01:24:54;101553.81;;;9.40;100.00
50103;BME280;35993;52.604;10.078;2024-03-22T01:27:20;101544.72;;;9.33;100.00
50103;BME280;35993;52.604;10.078;2024-03-22T01:29:46;101542.50;;;9.37;100.00
50103;BME280;35993;52.604;10.078;2024-03-22T01:32:12;101543.50;;;9.35;100.00
50103;BME280;35993;52.604;10.078;2024-03-22T01:34:38;101536.31;;;9.43;100.00
50103;BME280;35993;52.604;10.078;2024-03-22T01:37:03;101536.13;;;9.44;100.00
50103;BME280;35993;52.604;10.078;2024-03-22T01:39:30;101534.44;;;9.43;100.00
50103;BME280;35993;52.604;10.078;2024-03-22T01:41:57;101534.25;;;9.45;100.00
50103;BME280;35993;52.604;10.078;2024-03-22T01:44:27;101534.63;;;9.42;100.00
50103;BME280;35993;52.604;10.078;2024-03-22T01:46:54;101529.69;;;9.45;100.00
50103;BME280;35993;52.604;10.078;2024-03-22T01:49:24;101528.72;;;9.53;100.00
50103;BME280;35993;52.604;10.078;2024-03-22T01:51:51;101522.56;;;9.59;100.00
50103;BME280;35993;52.604;10.078;2024-03-22T01:54:18;101517.88;;;9.53;100.00
50103;BME280;35993;52.604;10.078;2024-03-22T01:56:44;101516.06;;;9.60;100.00
50103;BME280;35993;52.604;10.078;2024-03-22T01:59:10;101512.13;;;9.63;100.00
50103;BME280;35993;52.604;10.078;2024-03-22T02:01:36;101507.84;;;9.68;100.00
50103;BME280;35993;52.604;10.078;2024-03-22T02:04:01;101500.72;;;9.67;100.00
50103;BME280;35993;52.604;10.078;2024-03-22T02:06:27;101498.22;;;9.66;100.00
50103;BME280;35993;52.604;10.078;2024-03-22T02:08:53;101484.72;;;9.73;100.00
50103;BME280;35993;52.604;10.078;2024-03-22T02:11:23;101484.53;;;9.74;100.00
50103;BME280;35993;52.604;10.078;2024-03-22T02:13:48;101480.59;;;9.77;100.00
50103;BME280;35993;52.604;10.078;2024-03-22T02:16:14;101477.06;;;9.76;100.00
50103;BME280;35993;52.604;10.078;2024-03-22T02:18:39;101471.44;;;9.78;100.00
50103;BME280;35993;52.604;10.078;2024-03-22T02:21:06;101465.38;;;9.76;100.00
50103;BME280;35993;52.604;10.078;2024-03-22T02:23:35;101468.09;;;9.76;100.00
50103;BME280;35993;52.604;10.078;2024-03-22T02:26:01;101461.34;;;9.72;100.00
50103;BME280;35993;52.604;10.078;2024-03-22T02:28:28;101454.44;;;9.69;100.00
50103;BME280;35993;52.604;10.078;2024-03-22T02:30:53;101451.16;;;9.74;100.00
50103;BME280;35993;52.604;10.078;2024-03-22T02:33:19;101451.88;;;9.82;100.00
50103;BME280;35993;52.604;10.078;2024-03-22T02:35:48;101444.00;;;9.88;100.00
50103;BME280;35993;52.604;10.078;2024-03-22T02:38:14;101441.75;;;9.91;100.00
50103;BME280;35993;52.604;10.078;2024-03-22T02:40:43;101433.00;;;9.96;100.00
50103;BME280;35993;52.604;10.078;2024-03-22T02:43:09;101421.53;;;9.94;100.00
50103;BME280;35993;52.604;10.078;2024-03-22T02:45:35;101420.69;;;9.93;100.00
50103;BME280;35993;52.604;10.078;2024-03-22T02:48:00;101418.38;;;9.90;100.00
50103;BME280;35993;52.604;10.078;2024-03-22T02:50:27;101416.03;;;9.87;100.00
50103;BME280;35993;52.604;10.078;2024-03-22T02:52:53;101412.94;;;9.90;100.00
50103;BME280;35993;52.604;10.078;2024-03-22T02:55:18;101416.44;;;9.84;100.00
50103;BME280;35993;52.604;10.078;2024-03-22T02:57:44;101402.63;;;9.79;100.00
50103;BME280;35993;52.604;10.078;2024-03-22T03:00:10;101406.31;;;9.71;100.00
50103;BME280;35993;52.604;10.078;2024-03-22T03:02:36;101412.94;;;9.68;100.00
50103;BME280;35993;52.604;10.078;2024-03-22T03:05:03;101396.47;;;9.70;100.00
50103;BME280;35993;52.604;10.078;2024-03-22T03:07:30;101397.59;;;9.76;100.00
50103;BME280;35993;52.604;10.078;2024-03-22T03:09:55;101394.03;;;9.75;100.00
50103;BME280;35993;52.604;10.078;2024-03-22T03:12:21;101397.50;;;9.69;100.00
50103;BME280;35993;52.604;10.078;2024-03-22T03:14:46;101384.88;;;9.76;100.00
50103;BME280;35993;52.604;10.078;2024-03-22T03:17:12;101378.22;;;9.79;100.00
50103;BME280;35993;52.604;10.078;2024-03-22T03:19:37;101373.88;;;9.84;100.00
50103;BME280;35993;52.604;10.078;2024-03-22T03:22:03;101363.88;;;9.85;100.00
50103;BME280;35993;52.604;10.078;2024-03-22T03:24:29;101358.75;;;9.97;100.00
50103;BME280;35993;52.604;10.078;2024-03-22T03:26:54;101353.06;;;9.92;100.00
50103;BME280;35993;52.604;10.078;2024-03-22T03:29:20;101356.34;;;9.87;100.00
50103;BME280;35993;52.604;10.078;2024-03-22T03:31:46;101348.69;;;9.91;100.00
50103;BME280;35993;52.604;10.078;2024-03-22T03:34:11;101344.56;;;9.95;100.00
50103;BME280;35993;52.604;10.078;2024-03-22T03:36:40;101349.16;;;10.01;100.00
50103;BME280;35993;52.604;10.078;2024-03-22T03:39:06;101338.16;;;10.03;100.00
50103;BME280;35993;52.604;10.078;2024-03-22T03:41:31;101345.03;;;10.05;100.00
50103;BME280;35993;52.604;10.078;2024-03-22T03:43:59;101338.97;;;10.03;100.00
50103;BME280;35993;52.604;10.078;2024-03-22T03:46:25;101340.84;;;10.03;100.00
50103;BME280;35993;52.604;10.078;2024-03-22T03:48:50;101344.41;;;10.03;100.00
50103;BME280;35993;52.604;10.078;2024-03-22T03:51:16;101335.44;;;10.03;100.00
50103;BME280;35993;52.604;10.078;2024-03-22T03:53:43;101339.16;;;10.02;100.00
50103;BME280;35993;52.604;10.078;2024-03-22T03:56:08;101329.94;;;9.96;100.00
50103;BME280;35993;52.604;10.078;2024-03-22T03:58:35;101329.31;;;9.94;100.00
50103;BME280;35993;52.604;10.078;2024-03-22T04:01:08;101333.31;;;9.98;100.00
50103;BME280;35993;52.604;10.078;2024-03-22T04:03:35;101325.56;;;9.95;100.00
50103;BME280;35993;52.604;10.078;2024-03-22T04:06:00;101320.69;;;9.83;100.00
50103;BME280;35993;52.604;10.078;2024-03-22T04:08:26;101320.69;;;9.83;100.00
50103;BME280;35993;52.604;10.078;2024-03-22T04:10:55;101322.59;;;9.90;100.00
50103;BME280;35993;52.604;10.078;2024-03-22T04:13:25;101315.69;;;9.87;100.00
50103;BME280;35993;52.604;10.078;2024-03-22T04:15:52;101312.81;;;9.89;100.00
50103;BME280;35993;52.604;10.078;2024-03-22T04:18:18;101307.78;;;9.92;100.00
50103;BME280;35993;52.604;10.078;2024-03-22T04:20:56;101299.28;;;9.95;100.00
50103;BME280;35993;52.604;10.078;2024-03-22T04:23:22;101291.34;;;9.94;100.00
50103;BME280;35993;52.604;10.078;2024-03-22T04:25:55;101293.59;;;9.90;100.00
50103;BME280;35993;52.604;10.078;2024-03-22T04:28:21;101280.75;;;9.99;100.00
50103;BME280;35993;52.604;10.078;2024-03-22T04:33:26;101276.59;;;10.03;100.00
50103;BME280;35993;52.604;10.078;2024-03-22T04:35:53;101267.41;;;10.04;100.00
50103;BME280;35993;52.604;10.078;2024-03-22T04:38:18;101269.03;;;9.98;100.00
50103;BME280;35993;52.604;10.078;2024-03-22T04:40:45;101257.94;;;9.93;100.00
50103;BME280;35993;52.604;10.078;2024-03-22T04:43:11;101265.69;;;9.96;100.00
50103;BME280;35993;52.604;10.078;2024-03-22T04:45:36;101256.91;;;9.94;100.00
50103;BME280;35993;52.604;10.078;2024-03-22T04:48:04;101251.03;;;9.91;100.00
50103;BME280;35993;52.604;10.078;2024-03-22T04:50:30;101252.06;;;9.90;100.00
50103;BME280;35993;52.604;10.078;2024-03-22T04:52:56;101240.81;;;9.86;100.00
50103;BME280;35993;52.604;10.078;2024-03-22T04:55:22;101248.75;;;9.88;100.00
50103;BME280;35993;52.604;10.078;2024-03-22T04:57:48;101239.56;;;9.89;100.00
50103;BME280;35993;52.604;10.078;2024-03-22T05:00:14;101242.91;;;9.91;100.00
50103;BME280;35993;52.604;10.078;2024-03-22T05:02:41;101241.88;;;9.92;100.00
50103;BME280;35993;52.604;10.078;2024-03-22T05:05:07;101240.00;;;9.92;100.00
50103;BME280;35993;52.604;10.078;2024-03-22T05:07:34;101234.19;;;9.95;100.00
50103;BME280;35993;52.604;10.078;2024-03-22T05:10:00;101237.94;;;9.94;100.00
50103;BME280;35993;52.604;10.078;2024-03-22T05:12:26;101237.13;;;10.00;100.00
50103;BME280;35993;52.604;10.078;2024-03-22T05:14:51;101236.09;;;10.02;100.00
50103;BME280;35993;52.604;10.078;2024-03-22T05:17:17;101236.34;;;10.07;100.00
50103;BME280;35993;52.604;10.078;2024-03-22T05:19:44;101238.59;;;10.03;100.00
50103;BME280;35993;52.604;10.078;2024-03-22T05:22:09;101236.72;;;10.04;100.00
50103;BME280;35993;52.604;10.078;2024-03-22T05:24:35;101229.03;;;10.07;100.00
50103;BME280;35993;52.604;10.078;2024-03-22T05:27:00;101217.56;;;10.12;100.00
50103;BME280;35993;52.604;10.078;2024-03-22T05:29:26;101220.09;;;10.13;100.00
50103;BME280;35993;52.604;10.078;2024-03-22T05:31:51;101218.19;;;10.14;100.00
50103;BME280;35993;52.604;10.078;2024-03-22T05:34:18;101211.53;;;10.16;100.00
50103;BME280;35993;52.604;10.078;2024-03-22T05:36:45;101210.50;;;10.17;100.00
50103;BME280;35993;52.604;10.078;2024-03-22T05:39:11;101210.69;;;10.16;100.00
50103;BME280;35993;52.604;10.078;2024-03-22T05:41:38;101216.53;;;10.13;100.00
50103;BME280;35993;52.604;10.078;2024-03-22T05:44:04;101212.78;;;10.14;100.00
50103;BME280;35993;52.604;10.078;2024-03-22T05:46:30;101213.19;;;10.17;100.00
50103;BME280;35993;52.604;10.078;2024-03-22T05:48:59;101202.78;;;10.21;100.00
50103;BME280;35993;52.604;10.078;2024-03-22T05:51:25;101204.03;;;10.19;100.00
50103;BME280;35993;52.604;10.078;2024-03-22T05:53:51;101201.53;;;10.17;100.00
50103;BME280;35993;52.604;10.078;2024-03-22T05:56:18;101190.25;;;10.20;100.00
50103;BME280;35993;52.604;10.078;2024-03-22T05:58:45;101187.34;;;10.22;100.00
50103;BME280;35993;52.604;10.078;2024-03-22T06:01:11;101193.19;;;10.25;100.00
50103;BME280;35993;52.604;10.078;2024-03-22T06:03:37;101182.34;;;10.25;100.00
50103;BME280;35993;52.604;10.078;2024-03-22T06:06:03;101184.22;;;10.25;100.00
50103;BME280;35993;52.604;10.078;2024-03-22T06:08:29;101191.13;;;10.21;100.00
50103;BME280;35993;52.604;10.078;2024-03-22T06:10:57;101192.16;;;10.26;100.00
50103;BME280;35993;52.604;10.078;2024-03-22T06:13:22;101190.69;;;10.24;100.00
50103;BME280;35993;52.604;10.078;2024-03-22T06:15:49;101185.06;;;10.25;100.00
50103;BME280;35993;52.604;10.078;2024-03-22T06:18:15;101186.34;;;10.29;100.00
50103;BME280;35993;52.604;10.078;2024-03-22T06:20:42;101185.28;;;10.30;100.00
50103;BME280;35993;52.604;10.078;2024-03-22T06:23:09;101181.53;;;10.31;100.00
50103;BME280;35993;52.604;10.078;2024-03-22T06:25:35;101171.31;;;10.27;100.00
50103;BME280;35993;52.604;10.078;2024-03-22T06:28:01;101174.88;;;10.34;100.00
50103;BME280;35993;52.604;10.078;2024-03-22T06:30:27;101175.13;;;10.39;100.00
50103;BME280;35993;52.604;10.078;2024-03-22T06:32:55;101176.59;;;10.42;100.00
50103;BME280;35993;52.604;10.078;2024-03-22T06:35:21;101171.59;;;10.45;100.00
50103;BME280;35993;52.604;10.078;2024-03-22T06:37:48;101174.69;;;10.36;100.00
50103;BME280;35993;52.604;10.078;2024-03-22T06:40:14;101176.41;;;10.50;100.00
50103;BME280;35993;52.604;10.078;2024-03-22T06:42:41;101169.31;;;10.56;100.00
50103;BME280;35993;52.604;10.078;2024-03-22T06:45:07;101175.34;;;10.51;100.00
50103;BME280;35993;52.604;10.078;2024-03-22T06:47:35;101172.03;;;10.56;100.00
50103;BME280;35993;52.604;10.078;2024-03-22T06:50:00;101170.78;;;10.58;100.00
50103;BME280;35993;52.604;10.078;2024-03-22T06:52:29;101158.06;;;10.59;100.00
50103;BME280;35993;52.604;10.078;2024-03-22T06:54:55;101157.84;;;10.60;100.00
50103;BME280;35993;52.604;10.078;2024-03-22T06:57:20;101152.22;;;10.62;100.00
50103;BME280;35993;52.604;10.078;2024-03-22T06:59:46;101154.09;;;10.75;100.00
50103;BME280;35993;52.604;10.078;2024-03-22T07:02:12;101146.38;;;10.72;100.00
50103;BME280;35993;52.604;10.078;2024-03-22T07:04:39;101147.41;;;10.71;100.00
50103;BME280;35993;52.604;10.078;2024-03-22T07:07:05;101141.78;;;10.79;100.00
50103;BME280;35993;52.604;10.078;2024-03-22T07:09:33;101138.84;;;10.80;100.00
50103;BME280;35993;52.604;10.078;2024-03-22T07:11:58;101133.44;;;10.87;100.00
50103;BME280;35993;52.604;10.078;2024-03-22T07:14:24;101133.66;;;10.92;100.00
50103;BME280;35993;52.604;10.078;2024-03-22T07:16:51;101128.00;;;11.01;100.00
50103;BME280;35993;52.604;10.078;2024-03-22T07:19:20;101122.13;;;11.10;100.00
50103;BME280;35993;52.604;10.078;2024-03-22T07:21:47;101123.16;;;11.16;100.00
50103;BME280;35993;52.604;10.078;2024-03-22T07:24:12;101120.03;;;11.19;100.00
50103;BME280;35993;52.604;10.078;2024-03-22T07:26:38;101113.75;;;11.25;100.00
50103;BME280;35993;52.604;10.078;2024-03-22T07:29:04;101106.88;;;11.23;100.00
50103;BME280;35993;52.604;10.078;2024-03-22T07:31:30;101107.06;;;11.28;100.00
50103;BME280;35993;52.604;10.078;2024-03-22T07:33:55;101121.44;;;11.42;100.00
50103;BME280;35993;52.604;10.078;2024-03-22T07:36:21;101127.09;;;11.40;100.00
50103;BME280;35993;52.604;10.078;2024-03-22T07:38:48;101122.31;;;11.36;100.00
50103;BME280;35993;52.604;10.078;2024-03-22T07:41:16;101121.25;;;11.37;100.00
50103;BME280;35993;52.604;10.078;2024-03-22T07:43:42;101125.41;;;11.39;100.00
50103;BME280;35993;52.604;10.078;2024-03-22T07:46:07;101129.19;;;11.45;100.00
50103;BME280;35993;52.604;10.078;2024-03-22T07:48:33;101120.59;;;11.48;100.00
50103;BME280;35993;52.604;10.078;2024-03-22T07:51:00;101126.06;;;11.41;100.00
50103;BME280;35993;52.604;10.078;2024-03-22T07:53:26;101120.78;;;11.53;100.00
50103;BME280;35993;52.604;10.078;2024-03-22T07:55:53;101109.53;;;11.50;100.00
50103;BME280;35993;52.604;10.078;2024-03-22T07:58:19;101110.56;;;11.48;100.00
50103;BME280;35993;52.604;10.078;2024-03-22T08:00:45;101115.53;;;11.58;100.00
50103;BME280;35993;52.604;10.078;2024-03-22T08:03:23;101114.31;;;11.54;100.00
50103;BME280;35993;52.604;10.078;2024-03-22T08:05:49;101110.09;;;11.58;100.00
50103;BME280;35993;52.604;10.078;2024-03-22T08:08:36;101105.94;;;11.56;100.00
50103;BME280;35993;52.604;10.078;2024-03-22T08:11:01;101100.25;;;11.71;100.00
50103;BME280;35993;52.604;10.078;2024-03-22T08:13:27;101119.47;;;11.76;100.00
50103;BME280;35993;52.604;10.078;2024-03-22T08:15:52;101104.19;;;11.75;100.00
50103;BME280;35993;52.604;10.078;2024-03-22T08:18:19;101105.44;;;11.79;100.00
50103;BME280;35993;52.604;10.078;2024-03-22T08:20:44;101103.75;;;11.85;100.00
50103;BME280;35993;52.604;10.078;2024-03-22T08:23:10;101096.41;;;11.85;100.00
50103;BME280;35993;52.604;10.078;2024-03-22T08:25:36;101100.41;;;11.83;100.00
50103;BME280;35993;52.604;10.078;2024-03-22T08:28:02;101098.94;;;11.87;100.00
50103;BME280;35993;52.604;10.078;2024-03-22T08:30:28;101094.97;;;11.83;100.00
50103;BME280;35993;52.604;10.078;2024-03-22T08:32:54;101095.56;;;11.91;100.00
50103;BME280;35993;52.604;10.078;2024-03-22T08:35:19;101086.78;;;11.89;100.00
50103;BME280;35993;52.604;10.078;2024-03-22T08:37:45;101091.38;;;11.89;100.00
50103;BME280;35993;52.604;10.078;2024-03-22T08:40:11;101098.94;;;11.87;100.00
50103;BME280;35993;52.604;10.078;2024-03-22T08:42:37;101095.63;;;11.78;100.00
50103;BME280;35993;52.604;10.078;2024-03-22T08:45:04;101111.28;;;11.83;100.00
50103;BME280;35993;52.604;10.078;2024-03-22T08:47:30;101117.81;;;11.68;100.00
50103;BME280;35993;52.604;10.078;2024-03-22T08:49:56;101100.47;;;11.69;100.00
50103;BME280;35993;52.604;10.078;2024-03-22T08:52:23;101089.63;;;11.62;100.00
50103;BME280;35993;52.604;10.078;2024-03-22T08:54:52;101097.38;;;11.59;100.00
50103;BME280;35993;52.604;10.078;2024-03-22T08:57:18;101091.97;;;11.52;100.00
50103;BME280;35993;52.604;10.078;2024-03-22T08:59:45;101089.22;;;11.59;100.00
50103;BME280;35993;52.604;10.078;2024-03-22T09:02:10;101091.94;;;11.59;100.00
50103;BME280;35993;52.604;10.078;2024-03-22T09:04:37;101086.72;;;11.57;100.00
50103;BME280;35993;52.604;10.078;2024-03-22T09:07:03;101093.59;;;11.53;100.00
50103;BME280;35993;52.604;10.078;2024-03-22T09:09:28;101091.31;;;11.50;100.00
50103;BME280;35993;52.604;10.078;2024-03-22T09:11:54;101089.63;;;11.56;100.00
50103;BME280;35993;52.604;10.078;2024-03-22T09:14:19;101086.09;;;11.48;100.00
50103;BME280;35993;52.604;10.078;2024-03-22T09:16:45;101080.25;;;11.45;100.00
50103;BME280;35993;52.604;10.078;2024-03-22T09:19:11;101073.13;;;11.57;100.00
50103;BME280;35993;52.604;10.078;2024-03-22T09:21:36;101072.50;;;11.48;100.00
50103;BME280;35993;52.604;10.078;2024-03-22T09:24:03;101064.78;;;11.45;100.00
50103;BME280;35993;52.604;10.078;2024-03-22T09:26:32;101071.06;;;11.46;100.00
50103;BME280;35993;52.604;10.078;2024-03-22T09:28:58;101067.72;;;11.37;100.00
50103;BME280;35993;52.604;10.078;2024-03-22T09:31:24;101079.41;;;11.44;100.00
50103;BME280;35993;52.604;10.078;2024-03-22T09:33:50;101078.38;;;11.39;100.00
50103;BME280;35993;52.604;10.078;2024-03-22T09:36:15;101071.69;;;11.41;100.00
50103;BME280;35993;52.604;10.078;2024-03-22T09:38:41;101067.97;;;11.36;100.00
50103;BME280;35993;52.604;10.078;2024-03-22T09:41:07;101065.06;;;11.10;100.00
50103;BME280;35993;52.604;10.078;2024-03-22T09:43:33;101061.72;;;11.08;100.00
50103;BME280;35993;52.604;10.078;2024-03-22T09:46:00;101062.78;;;11.07;100.00
50103;BME280;35993;52.604;10.078;2024-03-22T09:48:29;101064.66;;;11.07;100.00
50103;BME280;35993;52.604;10.078;2024-03-22T09:50:55;101047.91;;;11.23;100.00
50103;BME280;35993;52.604;10.078;2024-03-22T09:53:21;101051.22;;;11.32;100.00
50103;BME280;35993;52.604;10.078;2024-03-22T09:55:49;101052.28;;;11.31;100.00
50103;BME280;35993;52.604;10.078;2024-03-22T09:58:15;101050.19;;;11.33;100.00
50103;BME280;35993;52.604;10.078;2024-03-22T10:00:50;101043.06;;;11.32;100.00
50103;BME280;35993;52.604;10.078;2024-03-22T10:03:15;101042.25;;;11.25;100.00
50103;BME280;35993;52.604;10.078;2024-03-22T10:05:41;101041.44;;;11.18;100.00
50103;BME280;35993;52.604;10.078;2024-03-22T10:08:08;101038.31;;;11.21;100.00
50103;BME280;35993;52.604;10.078;2024-03-22T10:10:34;101041.63;;;11.29;100.00
50103;BME280;35993;52.604;10.078;2024-03-22T10:13:03;101036.19;;;11.29;100.00
50103;BME280;35993;52.604;10.078;2024-03-22T10:15:32;101030.75;;;11.29;100.00
50103;BME280;35993;52.604;10.078;2024-03-22T10:18:00;101032.22;;;11.32;100.00
50103;BME280;35993;52.604;10.078;2024-03-22T10:20:28;101019.22;;;11.34;100.00
50103;BME280;35993;52.604;10.078;2024-03-22T10:22:58;101024.84;;;11.39;100.00
50103;BME280;35993;52.604;10.078;2024-03-22T10:25:26;101019.00;;;11.42;100.00
50103;BME280;35993;52.604;10.078;2024-03-22T10:27:54;101020.28;;;11.33;100.00
50103;BME280;35993;52.604;10.078;2024-03-22T10:30:21;101017.72;;;11.45;100.00
50103;BME280;35993;52.604;10.078;2024-03-22T10:32:51;101016.22;;;11.56;100.00
50103;BME280;35993;52.604;10.078;2024-03-22T10:35:17;101012.22;;;11.65;100.00
50103;BME280;35993;52.604;10.078;2024-03-22T10:37:43;101007.56;;;11.72;100.00
50103;BME280;35993;52.604;10.078;2024-03-22T10:40:10;101002.91;;;11.79;100.00
50103;BME280;35993;52.604;10.078;2024-03-22T10:42:38;100997.53;;;11.73;100.00
50103;BME280;35993;52.604;10.078;2024-03-22T10:45:08;100990.72;;;11.89;100.00
50103;BME280;35993;52.604;10.078;2024-03-22T10:47:36;100984.06;;;11.85;100.00
50103;BME280;35993;52.604;10.078;2024-03-22T10:50:10;100988.50;;;11.72;100.00
50103;BME280;35993;52.604;10.078;2024-03-22T10:55:13;100981.38;;;11.78;100.00
50103;BME280;35993;52.604;10.078;2024-03-22T10:57:43;100979.44;;;11.85;100.00
50103;BME280;35993;52.604;10.078;2024-03-22T11:00:11;100979.72;;;11.77;100.00
50103;BME280;35993;52.604;10.078;2024-03-22T11:02:37;100983.19;;;11.91;100.00
50103;BME280;35993;52.604;10.078;2024-03-22T11:05:04;100987.34;;;12.00;100.00
50103;BME280;35993;52.604;10.078;2024-03-22T11:07:32;100974.53;;;12.07;100.00
50103;BME280;35993;52.604;10.078;2024-03-22T11:10:00;100976.53;;;12.19;100.00
50103;BME280;35993;52.604;10.078;2024-03-22T11:12:28;100976.25;;;12.27;100.00
50103;BME280;35993;52.604;10.078;2024-03-22T11:14:57;100974.16;;;12.29;100.00
50103;BME280;35993;52.604;10.078;2024-03-22T11:17:23;100965.59;;;12.25;100.00
50103;BME280;35993;52.604;10.078;2024-03-22T11:19:52;100960.88;;;12.39;100.00
50103;BME280;35993;52.604;10.078;2024-03-22T11:22:18;100970.50;;;12.35;100.00
50103;BME280;35993;52.604;10.078;2024-03-22T11:24:44;100958.56;;;12.36;100.00
50103;BME280;35993;52.604;10.078;2024-03-22T11:27:10;100945.81;;;12.37;100.00
50103;BME280;35993;52.604;10.078;2024-03-22T11:29:41;100947.41;;;12.44;100.00
50103;BME280;35993;52.604;10.078;2024-03-22T11:32:09;100948.47;;;12.43;100.00
50103;BME280;35993;52.604;10.078;2024-03-22T11:34:39;100936.06;;;12.48;100.00
50103;BME280;35993;52.604;10.078;2024-03-22T11:37:06;100936.53;;;12.63;100.00
50103;BME280;35993;52.604;10.078;2024-03-22T11:39:39;100938.34;;;12.51;100.00
50103;BME280;35993;52.604;10.078;2024-03-22T11:42:05;100942.72;;;12.52;100.00
50103;BME280;35993;52.604;10.078;2024-03-22T11:44:36;100938.84;;;12.66;100.00
50103;BME280;35993;52.604;10.078;2024-03-22T11:47:03;100926.38;;;12.52;100.00
50103;BME280;35993;52.604;10.078;2024-03-22T11:49:34;100927.00;;;12.54;100.00
50103;BME280;35993;52.604;10.078;2024-03-22T11:52:00;100930.53;;;12.36;100.00
50103;BME280;35993;52.604;10.078;2024-03-22T11:54:25;100925.25;;;12.41;100.00
50103;BME280;35993;52.604;10.078;2024-03-22T11:56:51;100935.19;;;12.54;100.00
50103;BME280;35993;52.604;10.078;2024-03-22T11:59:20;100928.78;;;12.41;100.00
50103;BME280;35993;52.604;10.078;2024-03-22T12:01:46;100930.22;;;12.44;100.00
50103;BME280;35993;52.604;10.078;2024-03-22T12:04:12;100917.59;;;12.31;100.00
50103;BME280;35993;52.604;10.078;2024-03-22T12:06:44;100925.41;;;12.46;100.00
50103;BME280;35993;52.604;10.078;2024-03-22T12:09:11;100906.19;;;12.41;100.00
50103;BME280;35993;52.604;10.078;2024-03-22T12:11:39;100916.94;;;12.54;100.00
50103;BME280;35993;52.604;10.078;2024-03-22T12:14:10;100906.31;;;12.27;100.00
50103;BME280;35993;52.604;10.078;2024-03-22T12:16:35;100923.97;;;12.43;100.00
50103;BME280;35993;52.604;10.078;2024-03-22T12:19:01;100915.91;;;12.30;100.00
50103;BME280;35993;52.604;10.078;2024-03-22T12:21:28;100905.41;;;12.34;100.00
50103;BME280;35993;52.604;10.078;2024-03-22T12:24:00;100905.25;;;12.28;100.00
50103;BME280;35993;52.604;10.078;2024-03-22T12:26:26;100900.50;;;12.24;100.00
50103;BME280;35993;52.604;10.078;2024-03-22T12:28:52;100899.38;;;12.32;100.00
50103;BME280;35993;52.604;10.078;2024-03-22T12:31:18;100905.88;;;12.31;100.00
50103;BME280;35993;52.604;10.078;2024-03-22T12:33:44;100901.88;;;12.33;100.00
50103;BME280;35993;52.604;10.078;2024-03-22T12:36:10;100904.28;;;12.23;100.00